NCAR-RAP Real-Time Weather Data

Output produced by METARs form (25 January 2022  00:06 UTC)
found at http://weather.rap.ucar.edu/surface/
 
KRAP 242352Z 07007KT 2SM -SN BR SCT009 OVC037 M05/M06 A2998 RMK AO2 SLP186 P0000 60003 T10501061 10000 21050 51009
KRAP 242347Z 07007KT 3SM -SN BR SCT009 OVC039 M05/M06 A2998 RMK AO2 P0000
KRAP 242337Z 07008KT 3SM -SN BR BKN009 OVC041 M04/M06 A2998 RMK AO2 P0000 T10441061
KRAP 242330Z 07010KT 2 1/2SM -SN BR BKN009 OVC035 M04/M06 A2998 RMK AO2 P0000 T10441056
KRAP 242252Z 08008KT 1SM -SN BR BKN007 OVC021 M03/M04 A2996 RMK AO2 SLP176 P0001 T10331044 RVRNO
KRAP 242241Z 09006KT 3/4SM -SN BR BKN006 OVC019 M03/M04 A2996 RMK AO2 P0000 T10331044 RVRNO
KRAP 242211Z 06008KT 1 3/4SM -SN BR OVC006 M03/M04 A2995 RMK AO2 P0000 T10281039
KRAP 242152Z 08006KT 5SM -SN BR OVC005 M03/M04 A2995 RMK AO2 SLP169 P0000 T10281039
KRAP 242052Z 07008KT 3SM -SN BR OVC005 M02/M03 A2994 RMK AO2 SLP165 P0001 60002 T10221028 58001
KRAP 242032Z 07009KT 3SM -SN BR OVC005 M02/M03 A2994 RMK AO2 P0000 T10221033
KRAP 242024Z 06010KT 2 1/2SM -SN BR OVC005 M02/M03 A2994 RMK AO2 P0000 T10221033
KRAP 242007Z 05009KT 4SM -SN BR BKN007 OVC013 M02/M03 A2994 RMK AO2 CIG 004V009 P0000 T10171028
KRAP 241952Z 06007KT 2SM -SN BR BKN007 OVC011 M01/M03 A2994 RMK AO2 SLP164 P0001 T10111028
KRAP 241907Z 08005KT 3SM -SN BR BKN005 BKN023 OVC033 M01/M02 A2994 RMK AO2 P0000 T10111022
KRAP 241900Z 11007KT 2 1/2SM -SN BR BKN005 BKN021 OVC033 M01/M02 A2994 RMK AO2 P0000 T10111022
KRAP 241852Z 10007KT 2 1/2SM -SN BR SCT006 BKN021 OVC035 M01/M02 A2994 RMK AO2 SLP161 P0000 T10111017
KRAP 241839Z 07009KT 2 1/2SM -SN BR SCT006 BKN010 OVC029 M01/M02 A2994 RMK AO2 P0000 T10061017
KRAP 241820Z 03010KT 2SM -SN BR SCT006 BKN010 OVC016 M01/M02 A2993 RMK AO2 P0000 T10061017
KRAP 241813Z 04009KT 1 3/4SM -SN BR SCT006 SCT009 OVC016 00/M01 A2994 RMK AO2 P0000 T00001011
KRAP 241805Z 04009KT 2SM -SN BR BKN006 OVC016 M01/M02 A2994 RMK AO2 P0000 T10061017
KRAP 241752Z 03009KT 2 1/2SM -SN BR SCT006 OVC015 M01/M02 A2994 RMK AO2 WSHFT 1707 SLP163 P0001 60001 T10061017 10033 21006 53017
KRAP 241735Z 04010KT 3SM -SN BR SCT007 OVC015 M01/M02 A2994 RMK AO2 WSHFT 1707 P0000 T10061017
KRAP 241721Z 05012KT 2SM -SN BR FEW005 OVC015 M01/M02 A2993 RMK AO2 WSHFT 1707 P0000 T10061017
KRAP 241711Z 36014KT 2 1/2SM -SN BR SCT012 BKN017 OVC024 01/M01 A2993 RMK AO2 P0000 T00061006
KRAP 241701Z 34016G25KT 3SM -SN BR SCT017 BKN024 OVC050 01/M01 A2993 RMK AO2 P0000 T00061011
KRAP 241652Z 35017G22KT 4SM -SN BR SCT025 BKN042 OVC050 01/M01 A2992 RMK AO2 PK WND 34026/1614 SLP155 P0000 T00061011